Time;durP1;ratioP1;P1;durP2;ratioP2;P2;SDS_P1;SDS_P2;PMS_P1;PMS_P2;Temp;Humidity;BMP_temperature;BMP_pressure;BME280_temperature;BME280_humidity;BME280_pressure;Samples;Min_cycle;Max_cycle;Signal;HPM_P1;HPM_P2
2023/08/28 00:01:00;;;;;;;4.00;1.35;;;14.70;99.90;;;;;;5054399;28;20082;-42
2023/08/28 00:03:25;;;;;;;3.25;2.08;;;14.70;99.90;;;;;;5054134;28;20446;-40
2023/08/28 00:05:51;;;;;;;3.25;1.13;;;14.70;99.90;;;;;;5054058;28;20060;-40
2023/08/28 00:08:17;;;;;;;1.95;1.23;;;14.70;99.90;;;;;;5054175;28;20381;-39
2023/08/28 00:10:43;;;;;;;3.35;1.30;;;14.60;99.90;;;;;;5052992;28;20028;-41
2023/08/28 00:13:08;;;;;;;1.98;1.50;;;14.60;99.90;;;;;;5053927;28;20512;-38
2023/08/28 00:15:34;;;;;;;3.40;1.65;;;14.60;99.90;;;;;;5053674;28;20025;-39
2023/08/28 00:18:00;;;;;;;1.73;1.55;;;14.70;99.90;;;;;;5053814;28;20041;-46
2023/08/28 00:20:25;;;;;;;5.85;2.03;;;14.60;99.90;;;;;;5053554;28;20029;-44
2023/08/28 00:22:51;;;;;;;1.45;1.35;;;14.60;99.90;;;;;;5053760;28;20470;-42
2023/08/28 00:25:17;;;;;;;4.80;1.50;;;14.60;99.90;;;;;;5053589;28;20559;-39
2023/08/28 00:27:43;;;;;;;3.53;1.55;;;14.60;99.90;;;;;;5052802;28;20078;-40
2023/08/28 00:30:10;;;;;;;6.38;1.90;;;14.60;99.90;;;;;;5053539;28;20470;-43
2023/08/28 00:32:35;;;;;;;1.88;1.33;;;14.60;99.90;;;;;;5051627;28;20025;-40
2023/08/28 00:35:01;;;;;;;1.55;1.23;;;14.60;99.90;;;;;;5053726;28;20107;-42
2023/08/28 00:37:27;;;;;;;7.70;1.85;;;14.70;99.90;;;;;;5049574;28;20529;-41
2023/08/28 00:39:52;;;;;;;2.03;1.73;;;14.70;99.90;;;;;;5050859;28;20033;-46
2023/08/28 00:42:37;;;;;;;3.85;1.73;;;14.60;99.90;;;;;;5051495;28;20024;-40
2023/08/28 00:45:03;;;;;;;2.05;1.85;;;14.60;99.90;;;;;;5053368;28;20033;-44
2023/08/28 00:47:29;;;;;;;2.08;1.90;;;14.60;99.90;;;;;;5051231;28;20391;-43
2023/08/28 00:49:54;;;;;;;1.85;1.27;;;14.70;99.90;;;;;;5052120;28;20029;-46
2023/08/28 00:52:21;;;;;;;2.50;1.92;;;14.70;99.90;;;;;;5052160;28;20033;-43
2023/08/28 00:54:47;;;;;;;2.50;1.45;;;14.70;99.90;;;;;;5052249;28;20033;-43
2023/08/28 00:57:16;;;;;;;5.20;1.85;;;14.70;99.90;;;;;;5053356;28;20029;-41
2023/08/28 00:59:43;;;;;;;2.88;1.63;;;14.70;99.90;;;;;;5051350;28;20516;-40
2023/08/28 01:02:09;;;;;;;2.25;1.60;;;14.70;99.90;;;;;;5051860;28;20029;-39
2023/08/28 01:04:35;;;;;;;1.70;1.60;;;14.70;99.90;;;;;;5050872;28;20501;-41
2023/08/28 01:07:25;;;;;;;1.60;1.50;;;14.70;99.90;;;;;;5051802;28;20036;-39
2023/08/28 01:10:03;;;;;;;2.50;1.88;;;14.70;99.90;;;;;;5052861;28;20501;-42
2023/08/28 01:12:48;;;;;;;4.53;1.83;;;14.70;99.90;;;;;;5052948;28;20112;-42
2023/08/28 01:15:18;;;;;;;1.83;1.58;;;14.70;99.90;;;;;;5051029;28;20068;-42
2023/08/28 01:17:46;;;;;;;6.95;1.60;;;14.60;99.90;;;;;;5053150;28;20493;-46
2023/08/28 01:20:15;;;;;;;1.90;1.58;;;14.60;99.90;;;;;;5053649;28;20456;-44
2023/08/28 01:22:55;;;;;;;2.13;1.45;;;14.60;99.90;;;;;;5051039;28;20473;-40
2023/08/28 01:25:22;;;;;;;1.60;1.50;;;14.60;99.90;;;;;;5033046;28;20486;-41
2023/08/28 01:27:48;;;;;;;1.97;1.30;;;14.60;99.90;;;;;;5032770;28;20034;-40
2023/08/28 01:30:15;;;;;;;1.23;1.13;;;14.70;99.90;;;;;;5024805;28;20571;-43
2023/08/28 01:32:42;;;;;;;3.67;1.43;;;14.70;99.90;;;;;;5034971;28;20489;-44
2023/08/28 01:35:14;;;;;;;2.85;1.48;;;14.70;99.90;;;;;;5052920;28;20104;-40
2023/08/28 01:37:49;;;;;;;5.45;1.63;;;14.70;99.90;;;;;;5051489;28;20037;-45
2023/08/28 01:40:17;;;;;;;5.75;1.60;;;14.60;99.90;;;;;;5052591;28;20037;-43
2023/08/28 01:42:43;;;;;;;;;;;14.60;99.90;;;;;;5053003;28;20041;-41
2023/08/28 01:45:10;;;;;;;3.50;1.17;;;14.50;99.90;;;;;;5051642;28;19960;-40
2023/08/28 01:47:36;;;;;;;1.80;1.50;;;14.50;99.90;;;;;;5052263;28;20045;-44
2023/08/28 01:50:02;;;;;;;1.65;1.52;;;14.50;99.90;;;;;;5051824;28;20036;-39
2023/08/28 01:52:28;;;;;;;1.98;1.73;;;14.50;99.90;;;;;;5056502;28;20029;-41
2023/08/28 01:54:54;;;;;;;4.25;1.73;;;14.40;99.90;;;;;;5055757;28;20355;-41
2023/08/28 01:57:19;;;;;;;1.23;1.13;;;14.50;99.90;;;;;;5056485;28;20469;-40
2023/08/28 01:59:45;;;;;;;2.53;1.42;;;14.40;99.90;;;;;;5054559;28;20036;-40
2023/08/28 02:02:10;;;;;;;1.65;1.23;;;14.40;99.90;;;;;;5056449;28;20392;-39
2023/08/28 02:04:36;;;;;;;2.47;1.92;;;14.40;99.90;;;;;;5055598;28;20035;-40
2023/08/28 02:07:02;;;;;;;3.05;1.50;;;14.40;99.90;;;;;;5055292;28;20064;-42
2023/08/28 02:09:27;;;;;;;1.38;1.27;;;14.30;99.90;;;;;;5056253;28;20033;-39
2023/08/28 02:11:53;;;;;;;2.35;1.45;;;14.30;99.90;;;;;;5054925;28;20496;-42
2023/08/28 02:14:19;;;;;;;2.25;1.80;;;14.30;99.90;;;;;;5056182;28;20025;-42
2023/08/28 02:16:44;;;;;;;1.38;1.27;;;14.30;99.90;;;;;;5056106;28;20029;-40
2023/08/28 02:19:10;;;;;;;3.63;1.10;;;14.20;99.90;;;;;;5060908;28;20017;-42
2023/08/28 02:21:36;;;;;;;3.22;1.33;;;14.30;99.90;;;;;;5059182;28;20021;-42
2023/08/28 02:24:02;;;;;;;6.40;1.60;;;14.20;99.90;;;;;;5055969;28;20500;-42
2023/08/28 02:26:27;;;;;;;2.13;1.58;;;14.20;99.90;;;;;;5055871;28;20028;-40
2023/08/28 02:28:53;;;;;;;1.75;1.45;;;14.20;99.90;;;;;;5055942;28;20025;-44
2023/08/28 02:31:18;;;;;;;2.00;1.38;;;14.20;99.90;;;;;;5054985;28;20394;-44
2023/08/28 02:33:44;;;;;;;3.42;1.42;;;14.20;99.90;;;;;;5055856;28;20029;-42
2023/08/28 02:36:10;;;;;;;2.22;1.80;;;14.20;99.90;;;;;;5054382;28;20028;-43
2023/08/28 02:38:35;;;;;;;2.38;1.40;;;14.20;99.90;;;;;;5055735;28;20120;-41
2023/08/28 02:41:06;;;;;;;2.08;1.80;;;14.20;99.90;;;;;;5055032;28;20033;-40
2023/08/28 02:43:32;;;;;;;1.60;1.50;;;14.20;99.90;;;;;;5055901;28;20545;-38
2023/08/28 02:45:58;;;;;;;4.05;1.67;;;14.10;99.90;;;;;;5055559;28;20106;-41
2023/08/28 02:48:23;;;;;;;3.53;1.40;;;14.10;99.90;;;;;;5055142;28;20182;-42
2023/08/28 02:50:50;;;;;;;1.35;1.25;;;14.10;99.90;;;;;;5054367;28;20557;-40
2023/08/28 02:53:16;;;;;;;2.17;1.30;;;14.00;99.90;;;;;;5055432;28;20472;-38
2023/08/28 02:55:42;;;;;;;4.00;2.08;;;14.10;99.90;;;;;;5055439;28;20451;-45
2023/08/28 02:58:09;;;;;;;2.88;1.95;;;14.00;99.90;;;;;;5055606;28;20037;-37
2023/08/28 03:00:37;;;;;;;2.80;2.08;;;14.00;99.90;;;;;;5054485;28;20039;-39
2023/08/28 03:03:03;;;;;;;3.35;1.67;;;14.00;99.90;;;;;;5054902;28;20507;-39
2023/08/28 03:05:29;;;;;;;1.70;1.60;;;14.00;99.90;;;;;;5054268;28;20029;-41
2023/08/28 03:07:55;;;;;;;1.98;1.80;;;14.00;99.90;;;;;;5055118;28;20538;-40
2023/08/28 03:10:20;;;;;;;2.97;1.83;;;14.00;99.90;;;;;;5054227;28;20036;-37
2023/08/28 03:12:46;;;;;;;2.42;1.70;;;13.90;99.90;;;;;;5055052;28;20025;-41
2023/08/28 03:15:12;;;;;;;3.15;1.70;;;13.90;99.90;;;;;;5055024;28;20036;-37
2023/08/28 03:17:38;;;;;;;1.98;1.77;;;13.90;99.90;;;;;;5055254;28;20036;-39
2023/08/28 03:20:04;;;;;;;3.28;2.05;;;13.90;99.90;;;;;;5042848;28;20025;-44
2023/08/28 03:22:29;;;;;;;7.40;2.15;;;14.00;99.90;;;;;;5052855;28;20108;-40
2023/08/28 03:24:55;;;;;;;3.95;1.70;;;14.00;99.90;;;;;;5053725;28;20140;-39
2023/08/28 03:27:21;;;;;;;2.78;1.70;;;14.00;99.90;;;;;;5054750;28;20037;-37
2023/08/28 03:29:47;;;;;;;2.42;1.95;;;14.00;99.90;;;;;;5053887;28;20036;-40
2023/08/28 03:32:13;;;;;;;2.13;1.88;;;14.10;99.90;;;;;;5054703;28;20021;-39
2023/08/28 03:34:39;;;;;;;3.45;2.20;;;14.10;99.90;;;;;;5054670;28;20059;-39
2023/08/28 03:37:05;;;;;;;1.85;1.75;;;14.10;99.90;;;;;;5053217;28;20416;-38
2023/08/28 03:39:30;;;;;;;8.75;2.15;;;14.10;99.90;;;;;;5054313;28;20107;-41
2023/08/28 03:41:56;;;;;;;3.72;2.30;;;14.20;99.90;;;;;;5054386;28;20063;-40
2023/08/28 03:44:22;;;;;;;2.35;2.15;;;14.10;99.90;;;;;;5054694;28;20478;-37
2023/08/28 03:46:48;;;;;;;6.68;2.33;;;14.20;99.90;;;;;;5054401;28;20512;-40
2023/08/28 03:49:13;;;;;;;3.97;2.40;;;14.20;99.90;;;;;;5054125;28;20045;-43
2023/08/28 03:51:39;;;;;;;3.90;2.45;;;14.20;99.90;;;;;;5051824;28;20021;-38
2023/08/28 03:54:11;;;;;;;4.22;3.00;;;14.20;99.90;;;;;;5053810;28;20078;-39
2023/08/28 03:56:37;;;;;;;2.50;2.30;;;14.30;99.90;;;;;;5053452;28;20437;-43
2023/08/28 03:59:02;;;;;;;5.07;2.50;;;14.30;99.90;;;;;;5054155;28;20056;-39
2023/08/28 04:01:28;;;;;;;8.70;3.08;;;14.40;99.90;;;;;;5047673;28;20082;-39
2023/08/28 04:03:54;;;;;;;3.25;2.20;;;14.40;99.90;;;;;;5051930;28;20127;-40
2023/08/28 04:06:21;;;;;;;4.40;2.20;;;14.40;99.90;;;;;;5050010;28;20250;-38
2023/08/28 04:08:47;;;;;;;1.42;1.33;;;14.50;99.90;;;;;;5027424;28;20107;-38
2023/08/28 04:11:13;;;;;;;3.13;1.95;;;14.50;99.90;;;;;;5052840;28;20562;-39
2023/08/28 04:13:38;;;;;;;2.15;1.95;;;14.60;99.90;;;;;;5053176;28;20021;-37
2023/08/28 04:16:05;;;;;;;2.20;1.95;;;14.60;99.90;;;;;;5053318;28;20021;-40
2023/08/28 04:18:31;;;;;;;4.22;2.33;;;14.70;99.90;;;;;;5016144;28;20021;-38
2023/08/28 04:20:57;;;;;;;7.55;2.80;;;14.70;99.90;;;;;;5052311;28;20485;-40
2023/08/28 04:23:22;;;;;;;2.10;1.67;;;14.70;99.90;;;;;;5053991;28;20036;-37
2023/08/28 04:25:48;;;;;;;3.22;2.10;;;14.80;99.90;;;;;;5053502;28;20025;-39
2023/08/28 04:28:15;;;;;;;2.85;1.77;;;14.80;99.90;;;;;;5052454;28;20025;-43
2023/08/28 04:30:42;;;;;;;2.50;2.30;;;14.80;99.90;;;;;;5052210;28;20037;-41
2023/08/28 04:33:07;;;;;;;4.03;1.83;;;14.90;99.90;;;;;;5052344;28;20025;-43
2023/08/28 04:35:33;;;;;;;2.55;2.00;;;14.90;99.90;;;;;;5052379;28;20028;-41
2023/08/28 04:37:59;;;;;;;2.15;1.90;;;14.90;99.90;;;;;;5053172;28;20032;-39
2023/08/28 04:40:25;;;;;;;2.15;1.80;;;14.90;99.90;;;;;;5053450;28;20078;-39
2023/08/28 04:42:50;;;;;;;2.50;2.30;;;15.00;99.90;;;;;;5053623;28;20441;-38
2023/08/28 04:45:16;;;;;;;2.40;1.90;;;15.00;99.90;;;;;;5053353;28;20035;-40
2023/08/28 04:47:42;;;;;;;3.60;1.92;;;15.00;99.90;;;;;;5052449;28;20029;-38
2023/08/28 04:50:07;;;;;;;2.15;1.95;;;15.10;99.90;;;;;;5052207;28;20025;-39
2023/08/28 04:52:33;;;;;;;3.58;1.58;;;15.10;99.90;;;;;;5052078;28;20057;-39
2023/08/28 04:54:59;;;;;;;3.72;1.83;;;15.10;99.90;;;;;;5052198;28;20345;-42
2023/08/28 04:57:24;;;;;;;2.10;1.90;;;15.10;99.90;;;;;;5052150;28;20384;-38
2023/08/28 04:59:50;;;;;;;1.58;1.48;;;15.10;99.90;;;;;;5053434;28;20501;-42
2023/08/28 05:02:16;;;;;;;1.13;1.02;;;15.10;99.90;;;;;;5052105;28;20116;-43
2023/08/28 05:04:41;;;;;;;1.83;1.70;;;15.10;99.90;;;;;;5053006;28;20029;-38
2023/08/28 05:07:07;;;;;;;4.47;2.30;;;15.10;99.90;;;;;;5051686;28;20017;-38
2023/08/28 05:09:33;;;;;;;3.75;2.53;;;15.10;99.90;;;;;;5051724;28;20098;-46
2023/08/28 05:11:59;;;;;;;4.47;1.73;;;15.10;99.90;;;;;;5051672;28;20500;-43
2023/08/28 05:14:24;;;;;;;1.70;1.60;;;15.10;99.90;;;;;;5051671;28;20021;-49
2023/08/28 05:16:50;;;;;;;3.25;1.65;;;15.20;99.90;;;;;;5053118;28;20108;-52
2023/08/28 05:19:16;;;;;;;3.45;1.73;;;15.20;99.90;;;;;;5053058;28;20078;-52
2023/08/28 05:21:41;;;;;;;2.47;2.00;;;15.20;99.90;;;;;;5051856;28;20025;-50
2023/08/28 05:24:07;;;;;;;1.95;1.67;;;15.20;99.90;;;;;;5052619;28;20038;-50
2023/08/28 05:26:33;;;;;;;1.77;1.65;;;15.30;99.90;;;;;;5051846;28;20036;-48
2023/08/28 05:28:58;;;;;;;4.57;2.30;;;15.30;99.90;;;;;;5052722;28;20550;-51
2023/08/28 05:31:24;;;;;;;2.75;2.20;;;15.30;99.90;;;;;;5052146;28;20116;-45
2023/08/28 05:33:49;;;;;;;2.63;2.10;;;15.40;99.90;;;;;;5052904;28;20028;-50
2023/08/28 05:36:15;;;;;;;3.20;1.80;;;15.40;99.90;;;;;;5057178;28;20025;-50
2023/08/28 05:38:41;;;;;;;4.78;2.00;;;15.40;99.90;;;;;;5051963;28;20108;-49
2023/08/28 05:41:06;;;;;;;6.68;1.80;;;15.50;99.90;;;;;;5050917;28;20053;-48
2023/08/28 05:43:32;;;;;;;2.65;1.80;;;15.50;99.90;;;;;;5052236;28;20028;-47
2023/08/28 05:45:58;;;;;;;6.03;2.08;;;15.60;99.90;;;;;;5052303;28;20024;-50
2023/08/28 05:48:24;;;;;;;3.70;2.20;;;15.60;99.90;;;;;;5052039;28;20103;-51
2023/08/28 05:50:50;;;;;;;2.13;1.63;;;15.60;99.90;;;;;;5051828;28;20424;-51
2023/08/28 05:53:16;;;;;;;3.25;2.00;;;15.70;99.90;;;;;;5052498;28;20029;-51
2023/08/28 05:55:41;;;;;;;4.53;2.00;;;15.70;99.90;;;;;;5052682;28;20025;-46
2023/08/28 05:58:07;;;;;;;1.90;1.77;;;15.70;99.90;;;;;;5052560;28;20036;-50
2023/08/28 06:00:33;;;;;;;3.75;1.80;;;15.80;99.90;;;;;;5052336;28;20472;-39
2023/08/28 06:02:58;;;;;;;3.10;1.60;;;15.80;99.90;;;;;;5052324;28;20374;-43
2023/08/28 06:05:24;;;;;;;3.10;2.13;;;15.80;99.90;;;;;;5052370;28;20100;-40
2023/08/28 06:07:50;;;;;;;2.20;2.00;;;15.90;99.90;;;;;;5051811;28;20025;-38
2023/08/28 06:10:19;;;;;;;3.95;1.88;;;15.90;99.90;;;;;;5052615;28;20113;-41
2023/08/28 06:12:48;;;;;;;2.78;2.03;;;16.00;99.90;;;;;;5052230;28;20063;-39
2023/08/28 06:15:18;;;;;;;2.30;1.92;;;16.00;99.90;;;;;;5052025;28;20029;-38
2023/08/28 06:17:44;;;;;;;2.50;2.28;;;16.00;99.90;;;;;;5052449;28;20080;-39
2023/08/28 06:20:11;;;;;;;5.00;2.15;;;16.10;99.90;;;;;;5051880;28;20025;-41
2023/08/28 06:22:37;;;;;;;5.50;1.98;;;16.10;99.90;;;;;;5033313;28;20072;-51
2023/08/28 06:25:03;;;;;;;2.00;1.90;;;16.10;99.90;;;;;;5046412;28;20535;-46
2023/08/28 06:27:29;;;;;;;2.65;1.90;;;16.10;99.90;;;;;;5024008;28;20555;-56
2023/08/28 06:29:54;;;;;;;3.35;1.60;;;16.10;99.90;;;;;;5049433;28;20033;-49
2023/08/28 06:32:20;;;;;;;2.88;1.85;;;16.20;99.90;;;;;;5052091;28;20043;-47
2023/08/28 06:34:46;;;;;;;1.88;1.50;;;16.20;99.90;;;;;;5052114;28;20031;-51
2023/08/28 06:37:11;;;;;;;2.78;2.05;;;16.20;99.90;;;;;;5053540;28;20029;-50
2023/08/28 06:39:37;;;;;;;3.60;2.38;;;16.20;99.90;;;;;;5054720;28;20029;-49
2023/08/28 06:42:03;;;;;;;2.33;1.83;;;16.20;99.90;;;;;;5055162;28;20119;-49
2023/08/28 06:44:29;;;;;;;3.58;1.88;;;16.20;99.90;;;;;;5055456;28;20025;-43
2023/08/28 06:46:54;;;;;;;4.43;2.15;;;16.30;99.90;;;;;;5055371;28;20059;-42
2023/08/28 06:49:20;;;;;;;2.17;1.98;;;16.30;99.90;;;;;;5055246;28;20141;-39
2023/08/28 06:51:46;;;;;;;4.10;1.92;;;16.40;99.90;;;;;;5055254;28;20397;-41
2023/08/28 06:54:12;;;;;;;4.13;2.20;;;16.50;99.90;;;;;;5054186;28;20429;-43
2023/08/28 06:56:38;;;;;;;3.70;2.15;;;16.70;99.90;;;;;;5047933;28;20397;-41
2023/08/28 06:59:03;;;;;;;4.28;2.33;;;16.80;99.90;;;;;;5048916;28;20516;-40
2023/08/28 07:01:29;;;;;;;3.47;2.20;;;16.90;99.90;;;;;;5050131;28;20470;-43
2023/08/28 07:03:54;;;;;;;4.18;2.22;;;17.10;99.90;;;;;;5049120;28;20021;-40
2023/08/28 07:06:20;;;;;;;1.98;1.88;;;17.10;99.90;;;;;;5047688;28;20060;-40
2023/08/28 07:08:46;;;;;;;3.05;1.73;;;17.30;99.90;;;;;;5051098;28;20107;-41
2023/08/28 07:11:12;;;;;;;4.43;1.95;;;17.40;99.90;;;;;;5054855;28;20028;-43
2023/08/28 07:13:37;;;;;;;1.80;1.45;;;17.50;99.90;;;;;;5052129;28;20458;-41
2023/08/28 07:16:03;;;;;;;4.35;1.50;;;17.60;99.90;;;;;;5041410;28;20033;-39
2023/08/28 07:18:29;;;;;;;5.65;1.20;;;17.70;99.90;;;;;;5034981;28;20033;-41
2023/08/28 07:20:55;;;;;;;1.25;1.15;;;17.60;99.90;;;;;;5036911;28;20488;-39
2023/08/28 07:23:23;;;;;;;1.73;1.63;;;17.70;99.90;;;;;;5053721;28;20033;-40
2023/08/28 07:25:48;;;;;;;1.45;1.35;;;17.80;99.90;;;;;;5054615;28;20036;-38
2023/08/28 07:28:14;;;;;;;1.13;0.95;;;18.00;99.90;;;;;;5052968;28;20020;-40
2023/08/28 07:30:41;;;;;;;1.30;1.20;;;18.10;99.90;;;;;;5051011;28;20108;-41
2023/08/28 07:33:07;;;;;;;4.22;1.50;;;18.30;99.90;;;;;;5053021;28;20021;-44
2023/08/28 07:35:36;;;;;;;3.55;0.98;;;18.30;99.90;;;;;;5052859;28;20040;-39
2023/08/28 07:38:11;;;;;;;1.80;1.10;;;18.40;99.90;;;;;;5040385;28;20017;-39
2023/08/28 07:40:36;;;;;;;1.50;0.93;;;18.50;99.90;;;;;;5054684;28;20548;-40
2023/08/28 07:43:02;;;;;;;8.32;0.85;;;18.60;99.90;;;;;;5054338;28;20104;-38
2023/08/28 07:45:29;;;;;;;4.63;0.90;;;18.50;99.90;;;;;;5036112;28;20037;-38
2023/08/28 07:47:55;;;;;;;1.55;0.90;;;18.50;99.90;;;;;;5052998;28;20037;-40
2023/08/28 07:50:22;;;;;;;1.67;1.02;;;18.50;99.90;;;;;;5038391;28;20026;-39
2023/08/28 07:52:47;;;;;;;5.30;1.08;;;18.60;99.90;;;;;;5034592;28;20021;-37
2023/08/28 07:55:13;;;;;;;0.95;0.63;;;18.60;99.90;;;;;;5047973;28;20032;-39
2023/08/28 07:57:39;;;;;;;1.33;0.55;;;18.60;99.90;;;;;;5054309;28;20025;-40
2023/08/28 08:00:06;;;;;;;1.02;0.60;;;18.70;99.90;;;;;;5051939;28;20485;-41
2023/08/28 08:02:32;;;;;;;1.13;0.70;;;18.80;99.90;;;;;;5050246;28;20083;-38
2023/08/28 08:04:58;;;;;;;0.70;0.65;;;18.70;99.90;;;;;;5034573;28;20550;-41
2023/08/28 08:07:24;;;;;;;3.95;0.88;;;18.60;99.90;;;;;;5052430;28;20108;-40
2023/08/28 08:09:49;;;;;;;3.13;0.65;;;18.70;99.90;;;;;;5048857;28;20025;-42
2023/08/28 08:12:15;;;;;;;1.52;0.38;;;18.80;99.90;;;;;;5044749;28;20028;-44
2023/08/28 08:14:41;;;;;;;3.72;0.70;;;18.90;99.90;;;;;;5048661;28;20496;-42
2023/08/28 08:17:06;;;;;;;0.50;0.50;;;19.20;99.90;;;;;;5052583;28;20036;-39
2023/08/28 08:19:33;;;;;;;0.82;0.50;;;19.20;99.90;;;;;;5050209;28;20389;-42
2023/08/28 08:21:59;;;;;;;1.60;0.60;;;19.10;99.90;;;;;;5047122;28;20028;-51
2023/08/28 08:24:24;;;;;;;0.22;0.22;;;19.00;99.90;;;;;;5048517;28;20481;-50
2023/08/28 08:26:50;;;;;;;0.38;0.38;;;19.00;99.90;;;;;;5048966;28;20029;-48
2023/08/28 08:29:15;;;;;;;0.43;0.30;;;19.00;99.90;;;;;;5049272;28;20033;-42
2023/08/28 08:31:41;;;;;;;1.25;0.63;;;18.80;99.90;;;;;;5049231;28;20025;-60
2023/08/28 08:34:07;;;;;;;1.15;0.63;;;18.70;99.90;;;;;;5047294;28;20104;-51
2023/08/28 08:36:33;;;;;;;7.38;0.65;;;18.80;99.90;;;;;;5053430;28;20191;-53
2023/08/28 08:38:59;;;;;;;0.40;0.40;;;19.00;99.90;;;;;;5047936;28;20040;-52
2023/08/28 08:41:24;;;;;;;3.40;0.63;;;19.10;99.90;;;;;;5048747;28;20043;-51
2023/08/28 08:43:50;;;;;;;4.03;1.15;;;19.10;99.90;;;;;;5051751;28;20025;-48
2023/08/28 08:46:17;;;;;;;4.72;0.55;;;19.00;99.90;;;;;;5052414;28;20028;-52
2023/08/28 08:48:45;;;;;;;1.10;0.50;;;19.10;99.90;;;;;;5052813;28;20048;-54
2023/08/28 08:51:14;;;;;;;0.73;0.50;;;19.20;99.90;;;;;;5053132;28;20025;-52
2023/08/28 08:53:53;;;;;;;1.63;0.47;;;19.20;99.90;;;;;;5053443;28;20025;-51
2023/08/28 08:56:21;;;;;;;5.55;0.70;;;19.40;99.90;;;;;;5053198;28;20485;-54
2023/08/28 08:58:47;;;;;;;0.73;0.40;;;19.40;99.90;;;;;;5033495;28;20025;-50
2023/08/28 09:01:14;;;;;;;0.23;0.23;;;19.40;99.90;;;;;;5032745;28;20056;-52
2023/08/28 09:03:42;;;;;;;1.75;0.60;;;19.60;99.90;;;;;;5047802;28;20025;-50
2023/08/28 09:06:09;;;;;;;4.88;0.40;;;19.80;99.90;;;;;;5052069;28;20411;-51
2023/08/28 09:08:36;;;;;;;0.40;0.40;;;19.90;99.90;;;;;;5051713;28;20041;-52
2023/08/28 09:11:04;;;;;;;2.83;0.40;;;20.10;99.90;;;;;;5052834;28;20025;-53
2023/08/28 09:13:30;;;;;;;0.65;0.52;;;20.20;99.90;;;;;;5034311;28;20021;-51
2023/08/28 09:15:56;;;;;;;2.60;0.63;;;20.20;99.90;;;;;;5052578;28;20036;-52
2023/08/28 09:18:25;;;;;;;0.73;0.43;;;20.20;99.90;;;;;;5052806;28;20036;-51
2023/08/28 09:21:08;;;;;;;3.55;0.65;;;20.30;99.90;;;;;;5034760;28;20037;-49
2023/08/28 09:23:40;;;;;;;1.75;0.28;;;20.40;99.90;;;;;;5051837;28;20389;-56
2023/08/28 09:26:06;;;;;;;2.40;0.32;;;20.50;99.90;;;;;;5052634;28;20051;-58
2023/08/28 09:28:31;;;;;;;0.70;0.30;;;20.60;99.90;;;;;;5052618;28;20096;-51
2023/08/28 09:30:57;;;;;;;3.88;0.50;;;20.70;99.90;;;;;;5052211;28;20482;-50
2023/08/28 09:33:22;;;;;;;3.00;0.40;;;20.80;99.90;;;;;;5052707;28;20032;-55
2023/08/28 09:35:48;;;;;;;0.43;0.40;;;20.80;99.90;;;;;;5052618;28;20429;-52
2023/08/28 09:38:14;;;;;;;1.25;0.30;;;20.70;99.90;;;;;;5052611;28;20493;-53
2023/08/28 09:40:41;;;;;;;0.50;0.30;;;20.60;99.90;;;;;;5052591;28;20028;-49
2023/08/28 09:43:12;;;;;;;1.42;0.82;;;20.70;99.90;;;;;;5052561;28;20100;-51
2023/08/28 09:45:38;;;;;;;0.50;0.30;;;20.80;99.90;;;;;;5052871;28;20025;-51
2023/08/28 09:48:04;;;;;;;2.63;0.65;;;20.70;99.90;;;;;;5051367;28;20040;-50
2023/08/28 09:50:31;;;;;;;2.17;0.40;;;20.60;99.90;;;;;;5052562;28;20025;-51
2023/08/28 09:53:14;;;;;;;2.40;0.50;;;20.60;99.90;;;;;;5052471;28;20086;-51
2023/08/28 09:55:49;;;;;;;0.43;0.43;;;20.40;99.90;;;;;;5052498;28;20454;-50
2023/08/28 09:58:16;;;;;;;0.50;0.50;;;20.30;99.90;;;;;;5052431;28;20113;-51
2023/08/28 10:00:42;;;;;;;2.25;0.45;;;20.20;99.90;;;;;;5052416;28;20028;-49
2023/08/28 10:03:12;;;;;;;4.93;0.63;;;20.00;99.90;;;;;;5040870;28;20037;-52
2023/08/28 10:05:40;;;;;;;0.47;0.30;;;20.20;99.90;;;;;;5042545;28;20378;-50
2023/08/28 10:08:07;;;;;;;0.88;0.38;;;20.60;99.90;;;;;;5034412;28;20519;-52
2023/08/28 10:10:33;;;;;;;1.15;0.45;;;20.70;99.90;;;;;;5052642;28;20490;-40
2023/08/28 10:13:02;;;;;;;2.15;0.43;;;21.00;99.90;;;;;;5055211;28;20025;-40
2023/08/28 10:15:29;;;;;;;0.95;0.50;;;21.10;99.90;;;;;;5056152;28;20028;-42
2023/08/28 10:17:56;;;;;;;0.30;0.30;;;21.10;99.90;;;;;;5056089;28;20481;-44
2023/08/28 10:20:26;;;;;;;4.25;0.47;;;21.10;99.90;;;;;;5056211;28;20380;-39
2023/08/28 10:22:52;;;;;;;0.85;0.50;;;21.40;99.90;;;;;;5055630;28;20047;-42
2023/08/28 10:25:20;;;;;;;3.58;1.00;;;21.80;99.90;;;;;;5055949;28;20037;-43
2023/08/28 10:27:47;;;;;;;0.40;0.40;;;21.90;99.90;;;;;;5037958;28;20552;-42
2023/08/28 10:30:14;;;;;;;1.45;0.40;;;22.10;99.90;;;;;;5055992;28;20033;-44
2023/08/28 10:32:42;;;;;;;0.88;0.35;;;22.00;99.90;;;;;;5037900;28;20035;-43
2023/08/28 10:35:10;;;;;;;0.43;0.40;;;22.20;99.90;;;;;;5055894;28;20104;-42
2023/08/28 10:37:38;;;;;;;1.15;0.55;;;22.40;99.90;;;;;;5055791;28;20036;-43
2023/08/28 10:40:04;;;;;;;1.77;0.60;;;22.50;99.90;;;;;;5054995;28;20029;-39
2023/08/28 10:42:31;;;;;;;1.70;0.47;;;22.40;99.90;;;;;;5055776;28;20417;-43
2023/08/28 10:44:57;;;;;;;1.35;0.50;;;22.50;99.90;;;;;;5055920;28;20082;-41
2023/08/28 10:47:23;;;;;;;0.30;0.30;;;22.40;99.90;;;;;;5055498;28;20508;-40
2023/08/28 10:49:54;;;;;;;2.55;0.63;;;22.30;99.90;;;;;;5055434;28;20053;-41
2023/08/28 10:52:20;;;;;;;1.40;0.28;;;22.40;99.90;;;;;;5055548;28;20032;-43
2023/08/28 10:54:46;;;;;;;2.20;0.73;;;22.40;99.90;;;;;;5055720;28;20029;-39
2023/08/28 10:57:23;;;;;;;1.08;0.55;;;22.30;99.90;;;;;;5054578;28;20029;-43
2023/08/28 10:59:49;;;;;;;2.65;0.70;;;22.10;99.90;;;;;;5055444;28;20112;-39
2023/08/28 11:02:15;;;;;;;1.98;0.70;;;21.90;99.90;;;;;;5051067;28;20473;-43
2023/08/28 11:04:41;;;;;;;6.20;0.85;;;21.60;99.90;;;;;;5035338;28;20183;-41
2023/08/28 11:07:25;;;;;;;1.95;0.65;;;21.30;99.90;;;;;;5035431;28;20095;-40
2023/08/28 11:09:50;;;;;;;1.08;0.50;;;20.90;99.90;;;;;;5035266;28;20053;-42
2023/08/28 11:15:03;;;;;;;1.23;1.00;;;20.30;99.90;;;;;;5034967;28;20091;-41
2023/08/28 11:17:31;;;;;;;4.18;0.73;;;20.10;99.90;;;;;;5035291;28;20378;-38
2023/08/28 11:19:56;;;;;;;;;;;20.00;99.90;;;;;;5046790;28;20421;-39
2023/08/28 11:22:35;;;;;;;0.80;0.60;;;19.90;99.90;;;;;;5054262;28;19908;-39
2023/08/28 11:25:12;;;;;;;1.65;0.90;;;19.70;99.90;;;;;;5054816;28;20550;-38
2023/08/28 11:27:50;;;;;;;2.33;0.70;;;19.70;99.90;;;;;;5036962;28;20040;-39
2023/08/28 11:30:19;;;;;;;0.47;0.45;;;19.60;99.90;;;;;;5054084;28;20267;-38
2023/08/28 11:32:46;;;;;;;3.40;0.85;;;19.60;99.90;;;;;;5054649;28;20033;-45
2023/08/28 11:35:13;;;;;;;1.23;0.60;;;19.60;99.90;;;;;;5054614;28;20025;-42
2023/08/28 11:37:41;;;;;;;1.48;0.77;;;19.70;99.90;;;;;;5054841;28;20033;-37
2023/08/28 11:40:08;;;;;;;0.55;0.55;;;19.60;99.90;;;;;;5054657;28;20024;-38
2023/08/28 11:42:35;;;;;;;0.93;0.70;;;19.70;99.90;;;;;;5054781;28;20032;-43
2023/08/28 11:45:02;;;;;;;0.87;0.87;;;19.90;99.90;;;;;;5036686;28;20481;-39
2023/08/28 11:47:30;;;;;;;0.75;0.65;;;20.30;99.90;;;;;;5052492;28;20039;-39
2023/08/28 11:49:56;;;;;;;3.45;1.45;;;20.70;99.90;;;;;;5053042;28;20390;-39
2023/08/28 11:52:23;;;;;;;4.47;1.00;;;21.10;99.90;;;;;;5054310;28;20021;-39
2023/08/28 11:54:49;;;;;;;2.75;0.90;;;21.50;99.90;;;;;;5036469;28;20039;-41
2023/08/28 11:57:19;;;;;;;9.75;1.02;;;21.70;99.90;;;;;;5054398;28;20545;-43
2023/08/28 11:59:49;;;;;;;3.30;0.90;;;21.90;99.90;;;;;;5054231;28;20501;-53
2023/08/28 12:02:15;;;;;;;1.35;1.00;;;21.90;99.90;;;;;;5054138;28;20116;-53
2023/08/28 12:04:42;;;;;;;2.00;0.70;;;21.80;99.90;;;;;;5053277;28;20031;-52
2023/08/28 12:07:27;;;;;;;1.40;1.20;;;21.90;99.90;;;;;;5054240;28;20017;-53
2023/08/28 12:09:54;;;;;;;2.60;1.10;;;22.10;99.90;;;;;;5052105;28;20371;-53
2023/08/28 12:12:21;;;;;;;1.20;0.77;;;22.30;99.90;;;;;;5053746;28;20052;-53
2023/08/28 12:14:48;;;;;;;1.08;1.00;;;22.50;99.90;;;;;;5053610;28;20028;-52
2023/08/28 12:17:20;;;;;;;3.88;0.90;;;22.70;99.90;;;;;;5053523;28;20039;-53
2023/08/28 12:19:48;;;;;;;4.45;1.42;;;22.80;99.90;;;;;;5054047;28;20036;-52
2023/08/28 12:22:14;;;;;;;2.28;0.65;;;22.80;99.90;;;;;;5052966;28;20037;-53
2023/08/28 12:24:45;;;;;;;2.03;1.02;;;22.70;99.90;;;;;;5053884;28;20032;-53
2023/08/28 12:27:11;;;;;;;1.80;0.82;;;22.30;99.90;;;;;;5053834;28;20033;-49
2023/08/28 12:29:42;;;;;;;0.70;0.70;;;21.90;99.90;;;;;;5053556;28;20508;-51
2023/08/28 12:32:14;;;;;;;0.77;0.77;;;21.40;99.90;;;;;;5053899;28;20531;-50
2023/08/28 12:34:40;;;;;;;2.65;0.60;;;21.00;99.90;;;;;;5052747;28;20032;-54
2023/08/28 12:37:07;;;;;;;0.95;0.80;;;20.60;99.90;;;;;;5053470;28;20397;-53
2023/08/28 12:39:34;;;;;;;2.72;1.20;;;20.30;99.90;;;;;;5052769;28;20025;-52
2023/08/28 12:42:01;;;;;;;1.30;0.98;;;20.20;99.90;;;;;;5053653;28;20028;-52
2023/08/28 12:44:27;;;;;;;1.98;0.70;;;20.10;99.90;;;;;;5053319;28;20052;-53
2023/08/28 12:46:54;;;;;;;2.30;0.83;;;20.00;99.90;;;;;;5053233;28;20028;-49
2023/08/28 12:49:20;;;;;;;0.80;0.55;;;20.00;99.90;;;;;;5053061;28;20051;-57